Wind Surf — C6IO6 — position and weather

sailwx.info

Track history (hours):
 
Tides and Currents Weather Stations Pressure Air Temp Water Temp Dewpoint Dewpoint Depression Visibility Wind Speed Wind Dir Waves Ship Positions

Wind Surf

Operator: Holland America Line

Last reported at 2019-Apr-24 07:26 UTC. Time now 2019-Apr-26 03:44 UTC.
Position N 37°39' W 009°27'.

Length 187 m; draft 5.5 m.

Type: Passenger vessel. MMSI: 309242000.

Date/timePositionNaut miles runAvg speedWind from/ knotsBaromVisibWave heightAir tempDewpointWater temp
2019-Apr-24 07:26N 37°39' W 009°27'4 9.9
2019-Apr-24 07:00N 37°43' W 009°26'5 9.6
2019-Apr-24 06:30N 37°48' W 009°25'5 9.4
2019-Apr-24 06:00N 37°52' W 009°24'5 9.4
2019-Apr-24 05:30N 37°57' W 009°23'5 9.7
2019-Apr-24 05:00N 38°02' W 009°23'5 9.6
2019-Apr-24 04:30N 38°07' W 009°23'5 9.5
2019-Apr-24 04:00N 38°11' W 009°24'4 8.9
2019-Apr-24 03:30N 38°16' W 009°24'5 9.1
2019-Apr-24 03:00N 38°20' W 009°24'4 9.0
2019-Apr-24 02:30N 38°25' W 009°25'4 8.7
2019-Apr-24 02:00N 38°29' W 009°24'4 9.0
2019-Apr-24 01:30N 38°34' W 009°24'4 8.8
2019-Apr-24 01:00N 38°38' W 009°22'5 9.2
2019-Apr-24 00:29N 38°41' W 009°17'4 8.2
2019-Apr-23 23:59N 38°41' W 009°12'4 8.1
2019-Apr-23 23:30N 38°43' W 009°07'0 0.3
2019-Apr-23 23:00N 38°43' W 009°08'0 0.0
2019-Apr-23 22:30N 38°43' W 009°08'0 0.0
2019-Apr-23 22:00N 38°43' W 009°08'0 0.0
2019-Apr-23 21:30N 38°43' W 009°08'0 0.0
2019-Apr-23 21:00N 38°43' W 009°08'0 0.0
2019-Apr-23 20:30N 38°43' W 009°08'0 0.0
2019-Apr-23 20:00N 38°43' W 009°08'0 0.0
2019-Apr-23 19:30N 38°43' W 009°08'0 0.0
2019-Apr-23 19:00N 38°43' W 009°08'0 0.0
2019-Apr-23 18:30N 38°43' W 009°08'0 0.0
2019-Apr-23 18:00N 38°43' W 009°08'0 0.0
2019-Apr-23 17:30N 38°43' W 009°08'0 0.0
2019-Apr-23 17:00N 38°43' W 009°08'0 0.0
2019-Apr-23 16:30N 38°43' W 009°08'0 0.0
2019-Apr-23 16:00N 38°43' W 009°08'0 0.0
2019-Apr-23 15:30N 38°43' W 009°08'0 0.0
2019-Apr-23 15:00N 38°43' W 009°08'0 0.0
2019-Apr-23 14:30N 38°43' W 009°08'0 0.0
2019-Apr-23 14:00N 38°43' W 009°08'0 0.0
2019-Apr-23 13:30N 38°43' W 009°08'0 0.0
2019-Apr-23 13:00N 38°43' W 009°08'0 0.0
2019-Apr-23 12:30N 38°43' W 009°08'0 0.0
2019-Apr-23 12:00N 38°43' W 009°08'0 0.0
2019-Apr-23 11:30N 38°43' W 009°08'0 0.0
2019-Apr-23 11:00N 38°43' W 009°08'0 0.0
2019-Apr-23 10:30N 38°43' W 009°08'0 0.0
2019-Apr-23 10:00N 38°43' W 009°08'0 0.0
2019-Apr-23 09:30N 38°43' W 009°08'0 0.0
2019-Apr-23 09:00N 38°43' W 009°08'0 0.0
2019-Apr-23 08:27N 38°43' W 009°08'0 0.0
2019-Apr-23 08:00N 38°43' W 009°08'0 0.0
2019-Apr-23 07:30N 38°43' W 009°08'0 0.0
2019-Apr-23 07:00N 38°43' W 009°08'0 0.0
2019-Apr-23 06:30N 38°43' W 009°08'0 0.0
2019-Apr-23 06:00N 38°43' W 009°08'0 0.0
2019-Apr-23 05:30N 38°43' W 009°08'0 0.0
2019-Apr-23 05:00N 38°43' W 009°08'0 0.0
2019-Apr-23 04:30N 38°43' W 009°08'0 0.0
2019-Apr-23 04:00N 38°43' W 009°08'0 0.0
2019-Apr-23 03:30N 38°43' W 009°08'0 0.0
2019-Apr-23 03:00N 38°43' W 009°08'0 0.0
2019-Apr-23 02:30N 38°43' W 009°08'0 0.0
2019-Apr-23 02:00N 38°43' W 009°08'0 0.0
2019-Apr-23 01:30N 38°43' W 009°08'0 0.0
2019-Apr-23 01:00N 38°43' W 009°08'0 0.0
2019-Apr-23 00:30N 38°43' W 009°08'0 0.0
2019-Apr-23 00:00N 38°43' W 009°08'0 0.0
2019-Apr-22 23:30N 38°43' W 009°08'0 0.0
2019-Apr-22 23:00N 38°43' W 009°08'0 0.5
2019-Apr-22 22:30N 38°42' W 009°08'4 8.5
2019-Apr-22 22:00N 38°41' W 009°13'4 7.9
2019-Apr-22 21:30N 38°40' W 009°18'4 8.2
2019-Apr-22 21:00N 38°38' W 009°22'4 8.7
2019-Apr-22 20:30N 38°36' W 009°27'4 8.8
2019-Apr-22 20:00N 38°34' W 009°32'4 8.8
2019-Apr-22 19:30N 38°33' W 009°38'5 9.0
2019-Apr-22 19:00N 38°32' W 009°43'4 9.0
2019-Apr-22 18:30N 38°31' W 009°49'5 9.2
2019-Apr-22 18:00N 38°30' W 009°55'5 9.2
2019-Apr-22 17:30N 38°29' W 010°00'4 9.0
2019-Apr-22 17:00N 38°28' W 010°06'5 9.0
2019-Apr-22 16:30N 38°27' W 010°11'5 9.3
2019-Apr-22 15:59N 38°26' W 010°18'17 9.5
2019-Apr-22 14:11N 38°24' W 010°39'3 9.4
2019-Apr-22 13:54N 38°24' W 010°43'19 9.6
2019-Apr-22 11:57N 38°23' W 011°06'12 9.7
2019-Apr-22 10:40N 38°22' W 011°22'8 9.4
2019-Apr-22 09:48N 38°22' W 011°33'5110.5
2019-Apr-22 04:53N 38°19' W 012°38'1311.4
2019-Apr-22 03:45N 38°18' W 012°54'1611.7
2019-Apr-22 02:25N 38°18' W 013°14'512.0
2019-Apr-22 02:00N 38°17' W 013°21'612.3
2019-Apr-22 01:30N 38°17' W 013°28'612.0
2019-Apr-22 01:00N 38°17' W 013°36'611.8
2019-Apr-22 00:29N 38°17' W 013°44'711.6
2019-Apr-21 23:54N 38°17' W 013°53'1411.6
2019-Apr-21 22:40N 38°16' W 014°11'43410.3
2019-Apr-20 04:29N 37°46' W 023°20'2311.0
2019-Apr-20 02:26N 37°45' W 023°49'610.9
2019-Apr-20 01:54N 37°44' W 023°56'410.8
2019-Apr-20 01:29N 37°44' W 024°02'611.6
2019-Apr-20 01:01N 37°44' W 024°09'611.6
2019-Apr-20 00:30N 37°43' W 024°16'611.4
2019-Apr-20 00:00N 37°43' W 024°23'611.3
2019-Apr-19 23:30N 37°43' W 024°30'611.1
2019-Apr-19 23:00N 37°42' W 024°37'611.0
2019-Apr-19 22:30N 37°42' W 024°44'611.4
2019-Apr-19 22:01N 37°42' W 024°52'611.1
2019-Apr-19 21:31N 37°41' W 024°59'611.0
2019-Apr-19 21:00N 37°41' W 025°06'510.9
2019-Apr-19 20:30N 37°41' W 025°12'510.5
2019-Apr-19 20:00N 37°41' W 025°19'510.4
2019-Apr-19 19:30N 37°40' W 025°26'510.3
2019-Apr-19 19:00N 37°41' W 025°32'510.7
2019-Apr-19 18:30N 37°43' W 025°38'2 2.9
2019-Apr-19 17:58N 37°44' W 025°40'0 0.0
2019-Apr-19 17:28N 37°44' W 025°40'0 0.0
2019-Apr-19 16:58N 37°44' W 025°40'0 0.0
2019-Apr-19 16:28N 37°44' W 025°40'0 0.0
2019-Apr-19 15:58N 37°44' W 025°40'0 0.0
2019-Apr-19 15:28N 37°44' W 025°40'0 0.0
2019-Apr-19 14:58N 37°44' W 025°40'0 0.0
2019-Apr-19 14:28N 37°44' W 025°40'0 0.0
2019-Apr-19 13:58N 37°44' W 025°40'0 0.0
2019-Apr-19 13:28N 37°44' W 025°40'0 0.0
2019-Apr-19 12:58N 37°44' W 025°40'0 0.0
2019-Apr-19 12:27N 37°44' W 025°40'0 0.0
2019-Apr-19 12:00N 37°44' W 025°40'0 0.0
2019-Apr-19 11:28N 37°44' W 025°40'0 0.0
2019-Apr-19 10:58N 37°44' W 025°40'0 0.0
2019-Apr-19 10:30N 37°44' W 025°40'0 0.0
2019-Apr-19 09:58N 37°44' W 025°40'0 0.0
2019-Apr-19 09:28N 37°44' W 025°40'0 0.0
2019-Apr-19 08:58N 37°44' W 025°40'0 0.0
2019-Apr-19 08:31N 37°44' W 025°40'0 0.0
2019-Apr-19 08:01N 37°44' W 025°40'0 0.8
2019-Apr-19 07:30N 37°44' W 025°39'1 2.0
2019-Apr-19 07:00N 37°43' W 025°39'4 7.7
2019-Apr-19 06:30N 37°41' W 025°43'4 8.3
2019-Apr-19 06:00N 37°39' W 025°48'4 8.1
2019-Apr-19 05:30N 37°37' W 025°52'4 8.1
2019-Apr-19 05:00N 37°35' W 025°57'4 8.7
2019-Apr-19 04:30N 37°33' W 026°02'4 8.2
2019-Apr-19 04:00N 37°32' W 026°06'4 8.0
2019-Apr-19 03:30N 37°30' W 026°11'4 7.9
2019-Apr-19 03:00N 37°29' W 026°16'4 8.3
2019-Apr-19 02:30N 37°27' W 026°21'5 9.0
2019-Apr-19 02:00N 37°26' W 026°26'4 8.8
2019-Apr-19 01:30N 37°24' W 026°31'4 9.0
2019-Apr-19 01:00N 37°22' W 026°36'5 9.1
2019-Apr-19 00:30N 37°20' W 026°41'4 8.8
2019-Apr-19 00:00N 37°19' W 026°46'4 8.9
2019-Apr-18 23:31N 37°17' W 026°52'4 8.8
2019-Apr-18 23:00N 37°15' W 026°57'4 8.7
2019-Apr-18 22:30N 37°14' W 027°02'4 8.5
2019-Apr-18 22:00N 37°12' W 027°07'4 8.7
2019-Apr-18 21:30N 37°10' W 027°12'4 8.5
2019-Apr-18 21:00N 37°08' W 027°17'4 8.7
2019-Apr-18 20:30N 37°07' W 027°22'6 9.2
2019-Apr-18 19:49N 37°04' W 027°29'3 8.8
2019-Apr-18 19:29N 37°03' W 027°32'4 8.6
2019-Apr-18 18:59N 37°01' W 027°37'5 8.9
2019-Apr-18 18:26N 36°59' W 027°43'6 8.9
2019-Apr-18 17:44N 36°56' W 027°50'3 8.8
2019-Apr-18 17:26N 36°55' W 027°53'4 8.9
2019-Apr-18 17:01N 36°54' W 027°57'8 8.6
2019-Apr-18 16:02N 36°51' W 028°07'1 8.5
2019-Apr-18 15:57N 36°51' W 028°07'5 8.6
2019-Apr-18 15:24N 36°49' W 028°13'4 8.9
2019-Apr-18 14:54N 36°47' W 028°18'4 8.5
2019-Apr-18 14:27N 36°46' W 028°23'7 8.7
2019-Apr-18 13:37N 36°43' W 028°31'2 8.9
2019-Apr-18 13:24N 36°43' W 028°33'8 8.9
2019-Apr-18 12:32N 36°40' W 028°43'0 8.9
2019-Apr-18 12:30N 36°40' W 028°43'11 8.9
2019-Apr-18 11:17N 36°36' W 028°56'3 8.7
2019-Apr-18 10:59N 36°35' W 028°58'4 8.8
2019-Apr-18 10:29N 36°33' W 029°04'4 9.0
2019-Apr-18 10:00N 36°32' W 029°09'4 9.0
2019-Apr-18 09:30N 36°30' W 029°14'  
Track history (hours):
 
Tides and Currents Weather Stations Pressure Air Temp Water Temp Dewpoint Dewpoint Depression Visibility Wind Speed Wind Dir Waves Ship Positions

Wind Surf

Operator: Holland America Line

Last reported at 2019-Apr-24 07:26 UTC. Time now 2019-Apr-26 03:44 UTC.
Position N 37°39' W 009°27'.

Length 187 m; draft 5.5 m.

Type: Passenger vessel. MMSI: 309242000.

Date/timePositionNaut miles runAvg speedWind from/ knotsBaromVisibWave heightAir tempDewpointWater temp
2019-Apr-24 07:26N 37°39' W 009°27'4 9.9
2019-Apr-24 07:00N 37°43' W 009°26'5 9.6
2019-Apr-24 06:30N 37°48' W 009°25'5 9.4
2019-Apr-24 06:00N 37°52' W 009°24'5 9.4
2019-Apr-24 05:30N 37°57' W 009°23'5 9.7
2019-Apr-24 05:00N 38°02' W 009°23'5 9.6
2019-Apr-24 04:30N 38°07' W 009°23'5 9.5
2019-Apr-24 04:00N 38°11' W 009°24'4 8.9
2019-Apr-24 03:30N 38°16' W 009°24'5 9.1
2019-Apr-24 03:00N 38°20' W 009°24'4 9.0
2019-Apr-24 02:30N 38°25' W 009°25'4 8.7
2019-Apr-24 02:00N 38°29' W 009°24'4 9.0
2019-Apr-24 01:30N 38°34' W 009°24'4 8.8
2019-Apr-24 01:00N 38°38' W 009°22'5 9.2
2019-Apr-24 00:29N 38°41' W 009°17'4 8.2
2019-Apr-23 23:59N 38°41' W 009°12'4 8.1
2019-Apr-23 23:30N 38°43' W 009°07'0 0.3
2019-Apr-23 23:00N 38°43' W 009°08'0 0.0
2019-Apr-23 22:30N 38°43' W 009°08'0 0.0
2019-Apr-23 22:00N 38°43' W 009°08'0 0.0
2019-Apr-23 21:30N 38°43' W 009°08'0 0.0
2019-Apr-23 21:00N 38°43' W 009°08'0 0.0
2019-Apr-23 20:30N 38°43' W 009°08'0 0.0
2019-Apr-23 20:00N 38°43' W 009°08'0 0.0
2019-Apr-23 19:30N 38°43' W 009°08'0 0.0
2019-Apr-23 19:00N 38°43' W 009°08'0 0.0
2019-Apr-23 18:30N 38°43' W 009°08'0 0.0
2019-Apr-23 18:00N 38°43' W 009°08'0 0.0
2019-Apr-23 17:30N 38°43' W 009°08'0 0.0
2019-Apr-23 17:00N 38°43' W 009°08'0 0.0
2019-Apr-23 16:30N 38°43' W 009°08'0 0.0
2019-Apr-23 16:00N 38°43' W 009°08'0 0.0
2019-Apr-23 15:30N 38°43' W 009°08'0 0.0
2019-Apr-23 15:00N 38°43' W 009°08'0 0.0
2019-Apr-23 14:30N 38°43' W 009°08'0 0.0
2019-Apr-23 14:00N 38°43' W 009°08'0 0.0
2019-Apr-23 13:30N 38°43' W 009°08'0 0.0
2019-Apr-23 13:00N 38°43' W 009°08'0 0.0
2019-Apr-23 12:30N 38°43' W 009°08'0 0.0
2019-Apr-23 12:00N 38°43' W 009°08'0 0.0
2019-Apr-23 11:30N 38°43' W 009°08'0 0.0
2019-Apr-23 11:00N 38°43' W 009°08'0 0.0
2019-Apr-23 10:30N 38°43' W 009°08'0 0.0
2019-Apr-23 10:00N 38°43' W 009°08'0 0.0
2019-Apr-23 09:30N 38°43' W 009°08'0 0.0
2019-Apr-23 09:00N 38°43' W 009°08'0 0.0
2019-Apr-23 08:27N 38°43' W 009°08'0 0.0
2019-Apr-23 08:00N 38°43' W 009°08'0 0.0
2019-Apr-23 07:30N 38°43' W 009°08'0 0.0
2019-Apr-23 07:00N 38°43' W 009°08'0 0.0
2019-Apr-23 06:30N 38°43' W 009°08'0 0.0
2019-Apr-23 06:00N 38°43' W 009°08'0 0.0
2019-Apr-23 05:30N 38°43' W 009°08'0 0.0
2019-Apr-23 05:00N 38°43' W 009°08'0 0.0
2019-Apr-23 04:30N 38°43' W 009°08'0 0.0
2019-Apr-23 04:00N 38°43' W 009°08'0 0.0
2019-Apr-23 03:30N 38°43' W 009°08'0 0.0
2019-Apr-23 03:00N 38°43' W 009°08'0 0.0
2019-Apr-23 02:30N 38°43' W 009°08'0 0.0
2019-Apr-23 02:00N 38°43' W 009°08'0 0.0
2019-Apr-23 01:30N 38°43' W 009°08'0 0.0
2019-Apr-23 01:00N 38°43' W 009°08'0 0.0
2019-Apr-23 00:30N 38°43' W 009°08'0 0.0
2019-Apr-23 00:00N 38°43' W 009°08'0 0.0
2019-Apr-22 23:30N 38°43' W 009°08'0 0.0
2019-Apr-22 23:00N 38°43' W 009°08'0 0.5
2019-Apr-22 22:30N 38°42' W 009°08'4 8.5
2019-Apr-22 22:00N 38°41' W 009°13'4 7.9
2019-Apr-22 21:30N 38°40' W 009°18'4 8.2
2019-Apr-22 21:00N 38°38' W 009°22'4 8.7
2019-Apr-22 20:30N 38°36' W 009°27'4 8.8
2019-Apr-22 20:00N 38°34' W 009°32'4 8.8
2019-Apr-22 19:30N 38°33' W 009°38'5 9.0
2019-Apr-22 19:00N 38°32' W 009°43'4 9.0
2019-Apr-22 18:30N 38°31' W 009°49'5 9.2
2019-Apr-22 18:00N 38°30' W 009°55'5 9.2
2019-Apr-22 17:30N 38°29' W 010°00'4 9.0
2019-Apr-22 17:00N 38°28' W 010°06'5 9.0
2019-Apr-22 16:30N 38°27' W 010°11'5 9.3
2019-Apr-22 15:59N 38°26' W 010°18'17 9.5
2019-Apr-22 14:11N 38°24' W 010°39'3 9.4
2019-Apr-22 13:54N 38°24' W 010°43'19 9.6
2019-Apr-22 11:57N 38°23' W 011°06'12 9.7
2019-Apr-22 10:40N 38°22' W 011°22'8 9.4
2019-Apr-22 09:48N 38°22' W 011°33'5110.5
2019-Apr-22 04:53N 38°19' W 012°38'1311.4
2019-Apr-22 03:45N 38°18' W 012°54'1611.7
2019-Apr-22 02:25N 38°18' W 013°14'512.0
2019-Apr-22 02:00N 38°17' W 013°21'612.3
2019-Apr-22 01:30N 38°17' W 013°28'612.0
2019-Apr-22 01:00N 38°17' W 013°36'611.8
2019-Apr-22 00:29N 38°17' W 013°44'711.6
2019-Apr-21 23:54N 38°17' W 013°53'1411.6
2019-Apr-21 22:40N 38°16' W 014°11'43410.3
2019-Apr-20 04:29N 37°46' W 023°20'2311.0
2019-Apr-20 02:26N 37°45' W 023°49'610.9
2019-Apr-20 01:54N 37°44' W 023°56'410.8
2019-Apr-20 01:29N 37°44' W 024°02'611.6
2019-Apr-20 01:01N 37°44' W 024°09'611.6
2019-Apr-20 00:30N 37°43' W 024°16'611.4
2019-Apr-20 00:00N 37°43' W 024°23'611.3
2019-Apr-19 23:30N 37°43' W 024°30'611.1
2019-Apr-19 23:00N 37°42' W 024°37'611.0
2019-Apr-19 22:30N 37°42' W 024°44'611.4
2019-Apr-19 22:01N 37°42' W 024°52'611.1
2019-Apr-19 21:31N 37°41' W 024°59'611.0
2019-Apr-19 21:00N 37°41' W 025°06'510.9
2019-Apr-19 20:30N 37°41' W 025°12'510.5
2019-Apr-19 20:00N 37°41' W 025°19'510.4
2019-Apr-19 19:30N 37°40' W 025°26'510.3
2019-Apr-19 19:00N 37°41' W 025°32'510.7
2019-Apr-19 18:30N 37°43' W 025°38'2 2.9
2019-Apr-19 17:58N 37°44' W 025°40'0 0.0
2019-Apr-19 17:28N 37°44' W 025°40'0 0.0
2019-Apr-19 16:58N 37°44' W 025°40'0 0.0
2019-Apr-19 16:28N 37°44' W 025°40'0 0.0
2019-Apr-19 15:58N 37°44' W 025°40'0 0.0
2019-Apr-19 15:28N 37°44' W 025°40'0 0.0
2019-Apr-19 14:58N 37°44' W 025°40'0 0.0
2019-Apr-19 14:28N 37°44' W 025°40'0 0.0
2019-Apr-19 13:58N 37°44' W 025°40'0 0.0
2019-Apr-19 13:28N 37°44' W 025°40'0 0.0
2019-Apr-19 12:58N 37°44' W 025°40'0 0.0
2019-Apr-19 12:27N 37°44' W 025°40'0 0.0
2019-Apr-19 12:00N 37°44' W 025°40'0 0.0
2019-Apr-19 11:28N 37°44' W 025°40'0 0.0
2019-Apr-19 10:58N 37°44' W 025°40'0 0.0
2019-Apr-19 10:30N 37°44' W 025°40'0 0.0
2019-Apr-19 09:58N 37°44' W 025°40'0 0.0
2019-Apr-19 09:28N 37°44' W 025°40'0 0.0
2019-Apr-19 08:58N 37°44' W 025°40'0 0.0
2019-Apr-19 08:31N 37°44' W 025°40'0 0.0
2019-Apr-19 08:01N 37°44' W 025°40'0 0.8
2019-Apr-19 07:30N 37°44' W 025°39'1 2.0
2019-Apr-19 07:00N 37°43' W 025°39'4 7.7
2019-Apr-19 06:30N 37°41' W 025°43'4 8.3
2019-Apr-19 06:00N 37°39' W 025°48'4 8.1
2019-Apr-19 05:30N 37°37' W 025°52'4 8.1
2019-Apr-19 05:00N 37°35' W 025°57'4 8.7
2019-Apr-19 04:30N 37°33' W 026°02'4 8.2
2019-Apr-19 04:00N 37°32' W 026°06'4 8.0
2019-Apr-19 03:30N 37°30' W 026°11'4 7.9
2019-Apr-19 03:00N 37°29' W 026°16'4 8.3
2019-Apr-19 02:30N 37°27' W 026°21'5 9.0
2019-Apr-19 02:00N 37°26' W 026°26'4 8.8
2019-Apr-19 01:30N 37°24' W 026°31'4 9.0
2019-Apr-19 01:00N 37°22' W 026°36'5 9.1
2019-Apr-19 00:30N 37°20' W 026°41'4 8.8
2019-Apr-19 00:00N 37°19' W 026°46'4 8.9
2019-Apr-18 23:31N 37°17' W 026°52'4 8.8
2019-Apr-18 23:00N 37°15' W 026°57'4 8.7
2019-Apr-18 22:30N 37°14' W 027°02'4 8.5
2019-Apr-18 22:00N 37°12' W 027°07'4 8.7
2019-Apr-18 21:30N 37°10' W 027°12'4 8.5
2019-Apr-18 21:00N 37°08' W 027°17'4 8.7
2019-Apr-18 20:30N 37°07' W 027°22'6 9.2
2019-Apr-18 19:49N 37°04' W 027°29'3 8.8
2019-Apr-18 19:29N 37°03' W 027°32'4 8.6
2019-Apr-18 18:59N 37°01' W 027°37'5 8.9
2019-Apr-18 18:26N 36°59' W 027°43'6 8.9
2019-Apr-18 17:44N 36°56' W 027°50'3 8.8
2019-Apr-18 17:26N 36°55' W 027°53'4 8.9
2019-Apr-18 17:01N 36°54' W 027°57'8 8.6
2019-Apr-18 16:02N 36°51' W 028°07'1 8.5
2019-Apr-18 15:57N 36°51' W 028°07'5 8.6
2019-Apr-18 15:24N 36°49' W 028°13'4 8.9
2019-Apr-18 14:54N 36°47' W 028°18'4 8.5
2019-Apr-18 14:27N 36°46' W 028°23'7 8.7
2019-Apr-18 13:37N 36°43' W 028°31'2 8.9
2019-Apr-18 13:24N 36°43' W 028°33'8 8.9
2019-Apr-18 12:32N 36°40' W 028°43'0 8.9
2019-Apr-18 12:30N 36°40' W 028°43'11 8.9
2019-Apr-18 11:17N 36°36' W 028°56'3 8.7
2019-Apr-18 10:59N 36°35' W 028°58'4 8.8
2019-Apr-18 10:29N 36°33' W 029°04'4 9.0
2019-Apr-18 10:00N 36°32' W 029°09'4 9.0
2019-Apr-18 09:30N 36°30' W 029°14'  

Dump ship's entire track history